Time;durP1;ratioP1;P1;durP2;ratioP2;P2;SDS_P1;SDS_P2;PMS_P1;PMS_P2;Temp;Humidity;BMP_temperature;BMP_pressure;BME280_temperature;BME280_humidity;BME280_pressure;Samples;Min_cycle;Max_cycle;Signal;HPM_P1;HPM_P2
2021/10/01 00:00:36;;;;;;;14.9;11.9;;;;;;;5.33;100;99771.65;;;;
2021/10/01 00:10:35;;;;;;;11;9.5;;;;;;;5.22;100;99771.72;;;;
2021/10/01 00:20:33;;;;;;;20.3;12.8;;;;;;;5.16;100;99781.53;;;;
2021/10/01 00:30:32;;;;;;;13.6;10.6;;;;;;;5.21;100;99775.44;;;;
2021/10/01 00:40:32;;;;;;;12.8;11.5;;;;;;;5.25;100;99763.22;;;;
2021/10/01 00:50:32;;;;;;;17.6;13.1;;;;;;;5.45;100;99764.33;;;;
2021/10/01 01:00:32;;;;;;;12.3;10.7;;;;;;;5.52;100;99764.97;;;;
2021/10/01 01:10:26;;;;;;;11.9;10.6;;;;;;;5.52;100;99753.45;;;;
2021/10/01 01:20:25;;;;;;;17;13.1;;;;;;;5.62;100;99753.63;;;;
2021/10/01 01:30:24;;;;;;;16.8;14.6;;;;;;;5.55;100;99759.13;;;;
2021/10/01 01:40:22;;;;;;;18.1;14.9;;;;;;;5.51;100;99755.35;;;;
2021/10/01 01:50:21;;;;;;;13.4;12;;;;;;;5.59;100;99764.79;;;;
2021/10/01 02:20:17;;;;;;;17;12;;;;;;;5.73;100;99767.92;;;;
2021/10/01 02:30:16;;;;;;;13.7;12;;;;;;;5.73;100;99782.11;;;;
2021/10/01 02:40:14;;;;;;;14.2;12.3;;;;;;;5.69;100;99774.84;;;;
2021/10/01 02:50:13;;;;;;;12.5;11.3;;;;;;;5.57;100;99780.28;;;;
2021/10/01 03:00:12;;;;;;;14.5;11.3;;;;;;;5.21;100;99773.58;;;;
2021/10/01 03:10:10;;;;;;;10.5;8.1;;;;;;;5.04;100;99762.08;;;;
2021/10/01 03:20:09;;;;;;;9;8.1;;;;;;;4.82;100;99756.67;;;;
2021/10/01 03:30:09;;;;;;;13.5;8.7;;;;;;;4.69;100;99748.13;;;;
2021/10/01 03:40:06;;;;;;;11.2;7.9;;;;;;;4.52;100;99740.09;;;;
2021/10/01 03:50:04;;;;;;;10.9;8.7;;;;;;;4.53;100;99726.52;;;;
2021/10/01 04:00:05;;;;;;;12;8.8;;;;;;;4.47;100;99707.98;;;;
2021/10/01 04:10:04;;;;;;;9;7.6;;;;;;;4.5;100;99707.5;;;;
2021/10/01 04:20:04;;;;;;;10.8;8;;;;;;;4.38;100;99712.89;;;;
2021/10/01 04:30:00;;;;;;;11;8.7;;;;;;;4.27;100;99718.3;;;;
2021/10/01 04:39:57;;;;;;;13.8;9.1;;;;;;;4.25;100;99723.86;;;;
2021/10/01 04:49:56;;;;;;;9;8;;;;;;;4.17;100;99729.56;;;;
2021/10/01 04:59:54;;;;;;;10.5;8.6;;;;;;;3.94;100;99737.65;;;;
2021/10/01 05:09:53;;;;;;;11.4;8.4;;;;;;;4.04;100;99727.18;;;;
2021/10/01 05:19:50;;;;;;;11.7;8.2;;;;;;;4.03;100;99728.22;;;;
2021/10/01 05:29:49;;;;;;;9.9;8.7;;;;;;;4.3;100;99739.98;;;;
2021/10/01 05:39:47;;;;;;;10.8;8.6;;;;;;;4.32;100;99740.53;;;;
2021/10/01 05:49:47;;;;;;;15;9.5;;;;;;;4.7;100;99752.42;;;;
2021/10/01 05:59:45;;;;;;;14.5;10;;;;;;;4.85;100;99753.51;;;;
2021/10/01 06:09:44;;;;;;;16.6;10.8;;;;;;;5.12;100;99755.53;;;;
2021/10/01 06:19:43;;;;;;;11.5;10.4;;;;;;;5.44;100;99765.41;;;;
2021/10/01 06:29:40;;;;;;;14.5;13.1;;;;;;;5.8;100;99769.37;;;;
2021/10/01 06:39:39;;;;;;;16.9;12.2;;;;;;;6.33;100;99759.88;;;;
2021/10/01 08:19:29;;;;;;;18.2;12.3;;;;;;;10.05;100;99737.36;;;;
2021/10/01 08:29:28;;;;;;;10.1;8.1;;;;;;;10.6;100;99722.81;;;;
2021/10/01 08:39:27;;;;;;;14.8;8.5;;;;;;;10.98;100;99711.2;;;;
2021/10/01 08:49:27;;;;;;;10.4;6.7;;;;;;;11.29;100;99708.23;;;;
2021/10/01 08:59:26;;;;;;;12.8;9;;;;;;;11.65;100;99698.69;;;;
2021/10/01 09:09:25;;;;;;;10.7;9.1;;;;;;;12.14;100;99700.3;;;;
2021/10/01 09:19:25;;;;;;;13.2;7.1;;;;;;;12.64;100;99688.75;;;;
2021/10/01 09:29:24;;;;;;;11;8.1;;;;;;;13.06;100;99675.08;;;;
2021/10/01 09:39:24;;;;;;;12.5;7.8;;;;;;;13.2;100;99672.43;;;;
2021/10/01 09:49:23;;;;;;;7.9;5.9;;;;;;;13.8;100;99659.64;;;;
2021/10/01 09:59:23;;;;;;;5.7;3.3;;;;;;;13.92;100;99662.63;;;;
2021/10/01 10:09:23;;;;;;;7.8;5.3;;;;;;;14.88;100;99663.19;;;;
2021/10/01 10:19:30;;;;;;;10.9;5.7;;;;;;;14.82;100;99650.05;;;;
2021/10/01 10:29:23;;;;;;;9.6;6.6;;;;;;;15.23;100;99644.38;;;;
2021/10/01 10:39:29;;;;;;;7.9;4.5;;;;;;;14.89;100;99640.34;;;;
2021/10/01 10:49:27;;;;;;;10.6;5.2;;;;;;;14.91;100;99627.28;;;;
2021/10/01 10:59:22;;;;;;;6.2;3.9;;;;;;;15.34;100;99610.41;;;;
2021/10/01 11:09:22;;;;;;;5.5;2.8;;;;;;;15.18;100;99622.78;;;;
2021/10/01 11:19:22;;;;;;;6.3;3.2;;;;;;;14.92;100;99614.52;;;;
2021/10/01 11:29:22;;;;;;;6.2;3.5;;;;;;;15.24;100;99600.6;;;;
2021/10/01 11:39:22;;;;;;;4.2;2.2;;;;;;;15.99;100;99585.98;;;;
2021/10/01 11:49:24;;;;;;;5.2;2.9;;;;;;;16.07;100;99577.81;;;;
2021/10/01 11:59:25;;;;;;;6.7;2.7;;;;;;;16.48;100;99563.73;;;;
2021/10/01 12:09:22;;;;;;;7.7;2.7;;;;;;;16.6;100;99561.17;;;;
2021/10/01 12:19:23;;;;;;;4.7;2.4;;;;;;;16.58;100;99546.3;;;;
2021/10/01 12:29:23;;;;;;;4.4;2.6;;;;;;;16.69;100;99525.78;;;;
2021/10/01 12:39:22;;;;;;;3.9;2.1;;;;;;;16.57;100;99518.28;;;;
2021/10/01 12:49:23;;;;;;;3.8;2;;;;;;;16.55;100;99508.81;;;;
2021/10/01 12:59:23;;;;;;;5.3;2.8;;;;;;;16.2;100;99491.76;;;;
2021/10/01 13:09:23;;;;;;;4.7;2.4;;;;;;;16.24;100;99478.31;;;;
2021/10/01 13:19:23;;;;;;;7.6;2.9;;;;;;;16.25;100;99461.65;;;;
2021/10/01 13:29:23;;;;;;;3.7;2.3;;;;;;;16.33;100;99452.69;;;;
2021/10/01 13:39:23;;;;;;;5.6;2.5;;;;;;;16.58;100;99448.32;;;;
2021/10/01 13:49:23;;;;;;;9.7;2.2;;;;;;;16.43;100;99437.92;;;;
2021/10/01 13:59:23;;;;;;;5.4;2.6;;;;;;;15.95;100;99425.41;;;;
2021/10/01 14:09:23;;;;;;;3.8;2.2;;;;;;;15.39;100;99422.82;;;;
2021/10/01 14:19:23;;;;;;;4.8;2.6;;;;;;;15.38;100;99405.72;;;;
2021/10/01 14:29:23;;;;;;;4.6;2.2;;;;;;;15.31;100;99401.88;;;;
2021/10/01 14:39:23;;;;;;;4.6;2.1;;;;;;;14.92;100;99386.5;;;;
2021/10/01 14:49:23;;;;;;;5.7;2.5;;;;;;;15.07;100;99386.03;;;;
2021/10/01 14:59:23;;;;;;;5.2;2.3;;;;;;;14.99;100;99374.04;;;;
2021/10/01 15:09:23;;;;;;;4.6;2.1;;;;;;;14.7;100;99368.41;;;;
2021/10/01 15:19:23;;;;;;;5.1;2.2;;;;;;;14.52;100;99364.03;;;;
2021/10/01 15:29:23;;;;;;;7.3;2.8;;;;;;;14.31;100;99362.96;;;;
2021/10/01 15:39:22;;;;;;;5.5;2.3;;;;;;;14.13;100;99362.08;;;;
2021/10/01 15:49:22;;;;;;;6.2;2.7;;;;;;;13.76;100;99349.77;;;;
2021/10/01 15:59:22;;;;;;;14;4.6;;;;;;;13.16;100;99352.02;;;;
2021/10/01 16:09:22;;;;;;;5;3.6;;;;;;;12.8;100;99345.78;;;;
2021/10/01 16:19:22;;;;;;;5.7;2.6;;;;;;;12.37;100;99351.52;;;;
2021/10/01 16:29:21;;;;;;;8.4;4;;;;;;;12;100;99354.38;;;;
2021/10/01 16:39:20;;;;;;;5.7;3.5;;;;;;;11.68;100;99359.77;;;;
2021/10/01 16:49:20;;;;;;;4.9;3;;;;;;;11.39;100;99341.87;;;;
2021/10/01 16:59:19;;;;;;;8.9;5.4;;;;;;;11.16;100;99350.86;;;;
2021/10/01 17:09:21;;;;;;;7.1;5;;;;;;;11.01;100;99345.68;;;;
2021/10/01 17:19:18;;;;;;;12.2;7.2;;;;;;;10.77;100;99340.35;;;;
2021/10/01 17:29:17;;;;;;;9.1;7;;;;;;;10.67;100;99336.98;;;;
2021/10/01 17:39:16;;;;;;;29.5;22.6;;;;;;;10.54;100;99338.5;;;;
2021/10/01 17:49:16;;;;;;;16;12.6;;;;;;;10.31;100;99323.94;;;;
2021/10/01 17:59:15;;;;;;;16.7;12;;;;;;;10.09;100;99313.67;;;;
2021/10/01 18:09:14;;;;;;;16.6;11.6;;;;;;;9.9;100;99315.48;;;;
2021/10/01 18:19:13;;;;;;;14.2;10.1;;;;;;;9.71;100;99314.61;;;;
2021/10/01 18:29:12;;;;;;;24.6;22.1;;;;;;;9.5;100;99310.48;;;;
2021/10/01 18:39:11;;;;;;;20.3;17.1;;;;;;;9.28;100;99310.93;;;;
2021/10/01 18:49:10;;;;;;;23.5;16.9;;;;;;;8.98;100;99305.78;;;;
2021/10/01 18:59:09;;;;;;;15.1;13.5;;;;;;;8.76;100;99302.69;;;;
2021/10/01 19:09:08;;;;;;;15.8;14.2;;;;;;;8.57;100;99297.16;;;;
2021/10/01 19:19:07;;;;;;;17.3;14.1;;;;;;;8.35;100;99294.03;;;;
2021/10/01 19:39:05;;;;;;;21.8;16.2;;;;;;;8.02;100;99280.16;;;;
2021/10/01 19:49:04;;;;;;;18.4;13.3;;;;;;;7.94;100;99278.05;;;;
2021/10/01 19:59:04;;;;;;;14.9;12.9;;;;;;;7.76;100;99270.58;;;;
2021/10/01 20:09:02;;;;;;;16.7;13.3;;;;;;;7.58;100;99269.27;;;;
2021/10/01 20:48:57;;;;;;;19.3;16.9;;;;;;;7.34;100;99232.56;;;;
2021/10/01 20:59:00;;;;;;;19.9;16.8;;;;;;;7.45;100;99226.13;;;;
2021/10/01 21:48:51;;;;;;;15.2;13.8;;;;;;;7.77;100;99201.63;;;;
2021/10/01 21:58:49;;;;;;;13.8;12.2;;;;;;;7.55;100;99191.23;;;;
2021/10/01 22:08:56;;;;;;;12.1;10.9;;;;;;;7.48;100;99182.66;;;;
2021/10/01 22:28:47;;;;;;;14.6;11.7;;;;;;;7.31;100;99166.08;;;;
2021/10/01 22:38:48;;;;;;;11.7;10.5;;;;;;;6.93;100;99173.65;;;;
2021/10/01 22:48:51;;;;;;;16.3;13.3;;;;;;;6.82;100;99166.69;;;;
2021/10/01 22:58:45;;;;;;;13.8;12.3;;;;;;;6.71;100;99169.63;;;;
2021/10/01 23:08:41;;;;;;;13.3;10.2;;;;;;;6.77;100;99173.93;;;;
